createdAt,value
2023-04-18T00:01:27.401Z,13.65
2023-04-18T00:03:53.972Z,13.02
2023-04-18T00:06:22.200Z,12.30
2023-04-18T00:08:48.977Z,13.70
2023-04-18T00:11:15.416Z,12.82
2023-04-18T00:13:41.894Z,13.48
2023-04-18T00:16:08.714Z,12.07
2023-04-18T00:18:36.815Z,13.43
2023-04-18T00:21:04.334Z,12.37
2023-04-18T00:23:31.119Z,12.30
2023-04-18T00:25:57.672Z,12.00
2023-04-18T00:28:24.153Z,12.02
2023-04-18T00:30:50.669Z,12.25
2023-04-18T00:33:17.711Z,11.70
2023-04-18T00:35:44.386Z,10.95
2023-04-18T00:38:10.801Z,12.80
2023-04-18T00:40:37.815Z,11.32
2023-04-18T00:43:04.444Z,10.50
2023-04-18T00:45:31.072Z,11.93
2023-04-18T00:47:57.557Z,16.52
2023-04-18T00:50:24.599Z,12.00
2023-04-18T00:52:52.089Z,11.10
2023-04-18T00:55:18.874Z,11.48
2023-04-18T00:57:45.908Z,10.67
2023-04-18T01:00:12.897Z,11.63
2023-04-18T01:02:40.214Z,12.15
2023-04-18T01:05:07.938Z,11.35
2023-04-18T01:07:37.323Z,11.02
2023-04-18T01:10:04.266Z,11.47
2023-04-18T01:12:30.738Z,12.80
2023-04-18T01:14:57.290Z,12.07
2023-04-18T01:17:23.841Z,12.25
2023-04-18T01:19:50.973Z,10.77
2023-04-18T01:22:19.489Z,12.10
2023-04-18T01:24:45.906Z,12.57
2023-04-18T01:27:13.765Z,11.77
2023-04-18T01:29:43.028Z,11.75
2023-04-18T01:32:09.479Z,13.18
2023-04-18T01:34:36.122Z,12.80
2023-04-18T01:37:02.534Z,11.85
2023-04-18T01:39:29.185Z,12.80
2023-04-18T01:41:55.591Z,11.60
2023-04-18T01:44:22.005Z,12.27
2023-04-18T01:46:48.484Z,11.53
2023-04-18T01:49:15.996Z,12.15
2023-04-18T01:51:43.131Z,9.95
2023-04-18T01:54:09.561Z,12.00
2023-04-18T01:56:35.950Z,12.45
2023-04-18T01:59:02.357Z,16.50
2023-04-18T02:01:28.792Z,13.85
2023-04-18T02:03:55.496Z,13.95
2023-04-18T02:06:22.120Z,16.13
2023-04-18T02:08:48.753Z,15.98
2023-04-18T02:11:15.248Z,14.07
2023-04-18T02:13:41.760Z,14.10
2023-04-18T02:16:12.915Z,13.48
2023-04-18T02:18:40.148Z,11.55
2023-04-18T02:21:07.225Z,11.00
2023-04-18T02:23:33.716Z,10.90
2023-04-18T02:26:00.258Z,11.13
2023-04-18T02:28:26.693Z,10.68
2023-04-18T02:30:53.077Z,12.02
2023-04-18T02:33:19.553Z,10.27
2023-04-18T02:35:45.947Z,11.20
2023-04-18T02:38:13.739Z,11.23
2023-04-18T02:40:40.166Z,10.15
2023-04-18T02:43:06.573Z,11.50
2023-04-18T02:45:33.029Z,10.18
2023-04-18T02:47:59.571Z,12.10
2023-04-18T02:50:26.894Z,10.80
2023-04-18T02:52:53.446Z,11.43
2023-04-18T02:55:20.997Z,12.55
2023-04-18T02:57:47.625Z,9.57
2023-04-18T03:00:14.440Z,11.43
2023-04-18T03:02:41.130Z,11.90
2023-04-18T03:05:08.013Z,10.77
2023-04-18T03:07:34.460Z,12.13
2023-04-18T03:10:00.920Z,11.18
2023-04-18T03:12:27.273Z,10.20
2023-04-18T03:14:53.688Z,11.18
2023-04-18T03:17:20.510Z,12.15
2023-04-18T03:19:46.957Z,12.23
2023-04-18T03:22:14.320Z,11.63
2023-04-18T03:24:40.833Z,11.43
2023-04-18T03:27:07.611Z,12.65
2023-04-18T03:29:34.171Z,11.80
2023-04-18T03:32:00.781Z,13.50
2023-04-18T03:34:27.592Z,15.57
2023-04-18T03:36:54.220Z,14.63
2023-04-18T03:39:20.925Z,16.65
2023-04-18T03:41:47.465Z,28.35
2023-04-18T03:44:14.115Z,17.42
2023-04-18T03:46:41.158Z,17.65
2023-04-18T03:49:07.619Z,16.83
2023-04-18T03:51:44.472Z,17.85
2023-04-18T03:54:11.021Z,18.45
2023-04-18T03:56:37.569Z,17.70
2023-04-18T03:59:04.060Z,17.08
2023-04-18T04:01:30.714Z,17.67
2023-04-18T04:03:57.268Z,18.20
2023-04-18T04:06:24.192Z,18.30
2023-04-18T04:08:50.585Z,17.10
2023-04-18T04:11:17.566Z,17.00
2023-04-18T04:13:44.138Z,18.40
2023-04-18T04:16:10.753Z,17.95
2023-04-18T04:18:37.470Z,17.45
2023-04-18T04:21:05.192Z,16.80
2023-04-18T04:23:31.662Z,17.52
2023-04-18T04:25:58.760Z,17.30
2023-04-18T04:28:26.302Z,16.05
2023-04-18T04:30:53.169Z,17.95
2023-04-18T04:33:20.669Z,16.30
2023-04-18T04:35:47.581Z,16.90
2023-04-18T04:38:15.333Z,17.43
2023-04-18T04:40:42.517Z,16.77
2023-04-18T04:43:12.484Z,15.68
2023-04-18T04:45:41.902Z,15.25
2023-04-18T04:48:09.343Z,16.10
2023-04-18T04:50:41.791Z,15.17
2023-04-18T04:53:08.683Z,14.98
2023-04-18T04:55:35.289Z,14.80
2023-04-18T04:58:01.753Z,15.75
2023-04-18T05:00:28.850Z,14.27
2023-04-18T05:02:57.192Z,14.73
2023-04-18T05:05:23.665Z,14.43
2023-04-18T05:07:50.398Z,15.02
2023-04-18T05:10:17.026Z,14.82
2023-04-18T05:12:43.418Z,15.10
2023-04-18T05:15:10.531Z,13.47
2023-04-18T05:17:37.116Z,14.23
2023-04-18T05:20:04.364Z,13.82
2023-04-18T05:22:30.824Z,12.65
2023-04-18T05:24:57.280Z,13.13
2023-04-18T05:27:23.935Z,12.13
2023-04-18T05:29:52.785Z,12.82
2023-04-18T05:32:22.315Z,12.95
2023-04-18T05:34:49.028Z,12.15
2023-04-18T05:37:15.470Z,12.20
2023-04-18T05:39:41.959Z,11.43
2023-04-18T05:42:11.017Z,13.82
2023-04-18T05:44:37.459Z,11.65
2023-04-18T05:47:07.742Z,10.77
2023-04-18T05:49:37.218Z,10.90
2023-04-18T05:52:06.283Z,11.20
2023-04-18T05:54:35.221Z,15.63
2023-04-18T05:57:03.859Z,10.32
2023-04-18T05:59:30.973Z,9.73
2023-04-18T06:01:57.436Z,8.63
2023-04-18T06:04:24.052Z,9.07
2023-04-18T06:06:53.088Z,8.75
2023-04-18T06:09:19.646Z,8.23
2023-04-18T06:11:46.532Z,8.75
2023-04-18T06:14:13.460Z,8.50
2023-04-18T06:16:40.661Z,9.03
2023-04-18T06:19:07.260Z,9.68
2023-04-18T06:21:33.916Z,8.30
2023-04-18T06:24:01.497Z,8.43
2023-04-18T06:26:29.530Z,7.82
2023-04-18T06:28:56.019Z,7.97
2023-04-18T06:31:22.464Z,8.25
2023-04-18T06:33:48.950Z,7.55
2023-04-18T06:36:15.489Z,8.18
2023-04-18T06:38:41.906Z,7.85
2023-04-18T06:41:08.525Z,7.63
2023-04-18T06:43:36.274Z,7.72
2023-04-18T06:46:04.741Z,6.60
2023-04-18T06:48:31.379Z,6.88
2023-04-18T06:50:57.919Z,7.47
2023-04-18T06:53:24.397Z,7.67
2023-04-18T06:55:51.061Z,7.28
2023-04-18T06:58:17.729Z,6.80
2023-04-18T07:00:45.096Z,6.75
2023-04-18T07:03:13.364Z,7.05
2023-04-18T07:05:40.535Z,7.27
2023-04-18T07:08:07.602Z,7.13
2023-04-18T07:10:34.060Z,7.90
2023-04-18T07:13:00.619Z,8.23
2023-04-18T07:15:27.171Z,7.00
2023-04-18T07:17:56.833Z,7.67
2023-04-18T07:20:23.251Z,7.60
2023-04-18T07:22:49.677Z,7.25
2023-04-18T07:25:16.271Z,7.25
2023-04-18T07:27:42.845Z,7.35
2023-04-18T07:30:09.796Z,8.07
2023-04-18T07:32:36.598Z,8.23
2023-04-18T07:35:04.143Z,7.78
2023-04-18T07:37:31.236Z,8.32
2023-04-18T07:39:57.664Z,8.32
2023-04-18T07:42:24.079Z,8.27
2023-04-18T07:44:50.538Z,7.25
2023-04-18T07:47:22.347Z,7.90
2023-04-18T07:49:49.180Z,8.68
2023-04-18T07:52:15.612Z,8.25
2023-04-18T07:54:42.134Z,7.67
2023-04-18T07:57:08.737Z,8.18
2023-04-18T07:59:35.310Z,8.25
2023-04-18T08:02:02.025Z,9.88
2023-04-18T08:04:30.463Z,9.48
2023-04-18T08:06:57.154Z,8.27
2023-04-18T08:09:23.592Z,8.23
2023-04-18T08:11:50.204Z,8.30
2023-04-18T08:14:16.718Z,9.23
2023-04-18T08:16:43.178Z,9.35
2023-04-18T08:19:09.771Z,15.70
2023-04-18T08:21:36.388Z,9.13
2023-04-18T08:24:02.828Z,9.38
2023-04-18T08:26:29.240Z,9.75
2023-04-18T08:28:55.664Z,9.38
2023-04-18T08:31:22.287Z,9.87
2023-04-18T08:33:48.733Z,9.00
2023-04-18T08:36:15.403Z,8.32
2023-04-18T08:38:41.893Z,9.30
2023-04-18T08:41:08.557Z,10.25
2023-04-18T08:43:35.356Z,8.90
2023-04-18T08:46:01.975Z,9.00
2023-04-18T08:48:28.556Z,9.95
2023-04-18T08:50:59.523Z,9.93
2023-04-18T08:53:26.775Z,9.57
2023-04-18T08:55:57.258Z,8.73
2023-04-18T08:58:26.396Z,9.65
2023-04-18T09:00:55.669Z,9.50
2023-04-18T09:03:41.569Z,8.95
2023-04-18T09:06:14.036Z,20.33
2023-04-18T09:08:54.711Z,10.20
2023-04-18T09:11:21.970Z,8.45
2023-04-18T09:13:48.566Z,8.90
2023-04-18T09:16:14.998Z,8.82
2023-04-18T09:18:42.369Z,8.82
2023-04-18T09:21:19.357Z,8.37
2023-04-18T09:23:50.333Z,8.10
2023-04-18T09:26:33.747Z,8.25
2023-04-18T09:29:00.873Z,8.57
2023-04-18T09:31:27.969Z,7.68
2023-04-18T09:33:56.560Z,7.37
2023-04-18T09:36:27.253Z,7.38
2023-04-18T09:38:56.623Z,7.10
2023-04-18T09:41:24.273Z,7.78
2023-04-18T09:44:11.527Z,7.45
2023-04-18T09:46:45.226Z,8.00
2023-04-18T09:49:13.477Z,7.95
2023-04-18T09:51:43.042Z,7.75
2023-04-18T09:54:14.753Z,7.07
2023-04-18T09:56:44.177Z,7.50
2023-04-18T09:59:12.277Z,7.23
2023-04-18T10:01:41.315Z,6.70
2023-04-18T10:04:08.911Z,6.75
2023-04-18T10:06:39.605Z,5.97
2023-04-18T10:09:09.071Z,6.28
2023-04-18T10:11:36.362Z,6.80
2023-04-18T10:14:07.864Z,6.35
2023-04-18T10:16:36.423Z,5.93
2023-04-18T10:19:29.404Z,6.32
2023-04-18T10:21:57.761Z,6.00
2023-04-18T10:24:50.103Z,6.17
2023-04-18T10:27:17.184Z,6.20
2023-04-18T10:29:51.091Z,6.75
2023-04-18T10:32:23.524Z,5.95
2023-04-18T10:34:50.454Z,6.07
2023-04-18T10:37:18.788Z,6.17
2023-04-18T10:40:06.292Z,5.85
2023-04-18T10:42:48.009Z,5.93
2023-04-18T10:45:24.650Z,5.97
2023-04-18T10:48:11.183Z,5.70
2023-04-18T10:51:12.895Z,6.10
2023-04-18T10:53:40.516Z,5.47
2023-04-18T10:56:10.748Z,6.00
2023-04-18T10:58:37.287Z,5.75
2023-04-18T11:01:06.330Z,5.88
2023-04-18T11:03:34.039Z,5.60
2023-04-18T11:06:04.003Z,5.47
2023-04-18T11:08:33.703Z,5.65
2023-04-18T11:11:03.048Z,5.70
2023-04-18T11:13:29.630Z,5.68
2023-04-18T11:15:56.174Z,5.37
2023-04-18T11:18:22.684Z,5.07
2023-04-18T11:20:51.109Z,5.18
2023-04-18T11:23:24.839Z,5.20
2023-04-18T11:25:56.297Z,5.20
2023-04-18T11:28:24.827Z,5.03
2023-04-18T11:30:51.300Z,5.53
2023-04-18T11:33:19.709Z,5.50
2023-04-18T11:35:49.200Z,5.28
2023-04-18T11:38:16.450Z,5.40
2023-04-18T11:40:50.283Z,5.80
2023-04-18T11:43:21.991Z,5.65
2023-04-18T11:45:55.691Z,5.65
2023-04-18T11:48:23.015Z,5.53
2023-04-18T11:50:49.836Z,5.55
2023-04-18T11:53:40.545Z,5.50
2023-04-18T11:56:07.455Z,5.90
2023-04-18T11:58:34.809Z,5.20
2023-04-18T12:01:19.036Z,5.85
2023-04-18T12:04:06.695Z,6.07
2023-04-18T12:06:50.044Z,5.97
2023-04-18T12:09:17.403Z,6.40
2023-04-18T12:11:44.233Z,5.68
2023-04-18T12:14:21.632Z,5.68
2023-04-18T12:16:51.540Z,5.68
2023-04-18T12:19:20.886Z,6.27
2023-04-18T12:22:00.832Z,6.10
2023-04-18T12:24:28.931Z,5.75
2023-04-18T12:26:57.824Z,5.78
2023-04-18T12:29:25.590Z,5.60
2023-04-18T12:31:54.629Z,6.10
2023-04-18T12:34:21.340Z,5.43
2023-04-18T12:36:47.854Z,6.18
2023-04-18T12:39:14.243Z,6.50
2023-04-18T12:41:43.482Z,5.93
2023-04-18T12:44:10.095Z,6.13
2023-04-18T12:46:36.674Z,6.25
2023-04-18T12:49:03.136Z,5.35
2023-04-18T12:51:29.591Z,6.20
2023-04-18T12:53:56.396Z,7.70
2023-04-18T12:56:23.025Z,6.63
2023-04-18T12:58:49.439Z,6.65
2023-04-18T13:01:16.466Z,6.47
2023-04-18T13:03:43.177Z,7.07
2023-04-18T13:06:09.785Z,7.28
2023-04-18T13:08:38.334Z,7.23
2023-04-18T13:11:04.830Z,6.70
2023-04-18T13:13:34.460Z,7.78
2023-04-18T13:16:02.200Z,7.00
2023-04-18T13:18:28.622Z,8.40
2023-04-18T13:20:55.110Z,10.40
2023-04-18T13:23:21.562Z,8.88
2023-04-18T13:25:48.090Z,8.82
2023-04-18T13:28:14.580Z,8.27
2023-04-18T13:30:41.010Z,9.07
2023-04-18T13:33:07.482Z,9.60
2023-04-18T13:35:33.989Z,10.10
2023-04-18T13:38:00.666Z,9.98
2023-04-18T13:40:27.231Z,9.98
2023-04-18T13:42:53.742Z,10.13
2023-04-18T13:45:20.589Z,9.87
2023-04-18T13:47:47.311Z,9.80
2023-04-18T13:50:13.808Z,9.77
2023-04-18T13:52:40.362Z,11.25
2023-04-18T13:55:07.499Z,12.77
2023-04-18T13:57:34.288Z,10.77
2023-04-18T14:00:01.199Z,11.23
2023-04-18T14:02:27.895Z,10.90
2023-04-18T14:04:54.940Z,10.02
2023-04-18T14:07:21.488Z,10.73
2023-04-18T14:09:48.165Z,10.83
2023-04-18T14:12:14.767Z,11.23
2023-04-18T14:14:41.849Z,11.55
2023-04-18T14:17:08.267Z,11.45
2023-04-18T14:19:34.981Z,10.02
2023-04-18T14:22:01.434Z,11.57
2023-04-18T14:24:27.981Z,11.15
2023-04-18T14:26:54.891Z,11.18
2023-04-18T14:29:21.394Z,11.02
2023-04-18T14:31:47.917Z,10.82
2023-04-18T14:34:14.613Z,10.17
2023-04-18T14:36:41.144Z,10.82
2023-04-18T14:39:08.294Z,10.85
2023-04-18T14:41:34.696Z,11.10
2023-04-18T14:44:01.142Z,10.30
2023-04-18T14:46:28.244Z,9.87
2023-04-18T14:48:54.986Z,8.88
2023-04-18T14:51:21.456Z,9.48
2023-04-18T14:53:47.915Z,10.05
2023-04-18T14:56:15.811Z,9.82
2023-04-18T14:58:42.839Z,9.77
2023-04-18T15:01:09.226Z,9.77
2023-04-18T15:03:35.849Z,10.57
2023-04-18T15:06:02.375Z,10.05
2023-04-18T15:08:30.775Z,9.38
2023-04-18T15:10:58.917Z,9.60
2023-04-18T15:13:25.407Z,9.60
2023-04-18T15:15:56.780Z,9.10
2023-04-18T15:18:23.431Z,9.05
2023-04-18T15:20:50.042Z,9.50
2023-04-18T15:23:16.598Z,9.47
2023-04-18T15:25:44.867Z,9.23
2023-04-18T15:28:13.511Z,9.30
2023-04-18T15:30:40.173Z,9.80
2023-04-18T15:33:06.732Z,8.93
2023-04-18T15:35:33.227Z,8.37
2023-04-18T15:37:59.714Z,8.30
2023-04-18T15:40:26.126Z,8.68
2023-04-18T15:42:54.160Z,8.15
2023-04-18T15:45:21.278Z,8.15
2023-04-18T15:47:47.957Z,8.50
2023-04-18T15:50:15.981Z,8.40
2023-04-18T15:52:42.670Z,8.27
2023-04-18T15:55:11.267Z,9.15
2023-04-18T15:57:37.757Z,8.68
2023-04-18T16:00:27.345Z,7.77
2023-04-18T16:02:54.071Z,7.72
2023-04-18T16:05:20.726Z,7.25
2023-04-18T16:07:47.124Z,6.25
2023-04-18T16:10:15.258Z,7.00
2023-04-18T16:12:41.756Z,7.83
2023-04-18T16:15:09.958Z,10.05
2023-04-18T16:17:37.697Z,6.47
2023-04-18T16:20:09.077Z,7.05
2023-04-18T16:22:36.457Z,8.18
2023-04-18T16:25:04.090Z,18.97
2023-04-18T16:27:30.598Z,7.95
2023-04-18T16:29:57.064Z,8.20
2023-04-18T16:32:23.600Z,7.05
2023-04-18T16:34:50.113Z,7.03
2023-04-18T16:37:16.570Z,7.70
2023-04-18T16:39:43.002Z,9.05
2023-04-18T16:42:09.517Z,6.32
2023-04-18T16:44:35.988Z,9.88
2023-04-18T16:47:04.954Z,7.20
2023-04-18T16:49:31.593Z,6.73
2023-04-18T16:51:58.086Z,6.53
2023-04-18T16:54:24.497Z,6.20
2023-04-18T16:56:50.913Z,7.05
2023-04-18T16:59:17.733Z,6.60
2023-04-18T17:01:44.293Z,6.50
2023-04-18T17:04:11.251Z,6.90
2023-04-18T17:06:37.747Z,6.63
2023-04-18T17:09:06.204Z,6.38
2023-04-18T17:11:38.781Z,6.38
2023-04-18T17:14:06.001Z,5.87
2023-04-18T17:16:32.417Z,6.35
2023-04-18T17:18:58.809Z,6.07
2023-04-18T17:21:26.121Z,6.00
2023-04-18T17:23:53.349Z,6.30
2023-04-18T17:26:19.780Z,6.67
2023-04-18T17:28:46.248Z,7.25
2023-04-18T17:31:16.214Z,7.18
2023-04-18T17:33:43.072Z,7.05
2023-04-18T17:36:09.789Z,6.82
2023-04-18T17:38:36.388Z,6.63
2023-04-18T17:41:04.562Z,6.70
2023-04-18T17:43:31.011Z,7.60
2023-04-18T17:45:59.873Z,8.23
2023-04-18T17:48:26.358Z,8.60
2023-04-18T17:50:52.757Z,7.77
2023-04-18T17:53:19.190Z,7.80
2023-04-18T17:55:48.849Z,7.22
2023-04-18T17:58:16.804Z,6.65
2023-04-18T18:00:43.330Z,6.85
2023-04-18T18:03:13.473Z,7.70
2023-04-18T18:05:41.307Z,7.28
2023-04-18T18:08:07.890Z,6.60
2023-04-18T18:10:34.423Z,7.50
2023-04-18T18:13:00.928Z,7.30
2023-04-18T18:15:28.393Z,8.00
2023-04-18T18:17:55.706Z,7.28
2023-04-18T18:20:22.423Z,7.63
2023-04-18T18:22:49.011Z,7.30
2023-04-18T18:25:15.436Z,7.85
2023-04-18T18:27:42.072Z,8.10
2023-04-18T18:30:09.156Z,7.97
2023-04-18T18:32:35.675Z,7.88
2023-04-18T18:35:02.812Z,8.80
2023-04-18T18:37:29.268Z,10.23
2023-04-18T18:39:59.770Z,8.17
2023-04-18T18:42:26.370Z,7.85
2023-04-18T18:44:52.816Z,9.07
2023-04-18T18:47:19.370Z,10.60
2023-04-18T18:49:45.881Z,9.57
2023-04-18T18:52:12.420Z,8.33
2023-04-18T18:54:38.968Z,8.40
2023-04-18T18:57:05.451Z,8.30
2023-04-18T18:59:32.010Z,8.85
2023-04-18T19:01:58.710Z,9.95
2023-04-18T19:04:25.623Z,8.23
2023-04-18T19:06:53.426Z,9.55
2023-04-18T19:09:19.861Z,7.60
2023-04-18T19:11:46.453Z,8.57
2023-04-18T19:14:13.091Z,9.43
2023-04-18T19:16:39.684Z,8.87
2023-04-18T19:19:06.253Z,8.90
2023-04-18T19:21:32.665Z,8.82
2023-04-18T19:23:59.320Z,8.48
2023-04-18T19:26:25.840Z,11.25
2023-04-18T19:28:52.890Z,10.20
2023-04-18T19:31:19.304Z,8.68
2023-04-18T19:33:45.983Z,12.02
2023-04-18T19:36:12.464Z,8.75
2023-04-18T19:38:38.905Z,8.23
2023-04-18T19:41:05.339Z,8.73
2023-04-18T19:43:31.886Z,8.63
2023-04-18T19:45:59.000Z,8.25
2023-04-18T19:48:25.506Z,9.30
2023-04-18T19:50:51.977Z,8.30
2023-04-18T19:53:18.994Z,8.80
2023-04-18T19:55:45.524Z,9.13
2023-04-18T19:58:11.975Z,8.30
2023-04-18T20:00:39.381Z,9.18
2023-04-18T20:03:05.928Z,8.02
2023-04-18T20:05:32.500Z,7.07
2023-04-18T20:07:58.910Z,7.50
2023-04-18T20:10:25.540Z,7.22
2023-04-18T20:12:52.014Z,6.72
2023-04-18T20:15:18.526Z,7.10
2023-04-18T20:17:45.141Z,6.93
2023-04-18T20:20:12.175Z,6.68
2023-04-18T20:22:40.314Z,7.25
2023-04-18T20:25:07.098Z,6.57
2023-04-18T20:27:33.541Z,6.95
2023-04-18T20:29:59.942Z,6.47
2023-04-18T20:32:26.675Z,7.32
2023-04-18T20:34:53.459Z,6.88
2023-04-18T20:37:20.125Z,6.95
2023-04-18T20:39:47.415Z,7.35
2023-04-18T20:42:14.199Z,7.23
2023-04-18T20:44:43.091Z,9.95
2023-04-18T20:47:09.612Z,7.85
2023-04-18T20:49:36.125Z,7.78
2023-04-18T20:52:02.609Z,7.30
2023-04-18T20:54:29.148Z,7.60
2023-04-18T20:56:55.613Z,7.35
2023-04-18T20:59:22.013Z,6.88
2023-04-18T21:01:48.434Z,7.90
2023-04-18T21:04:14.992Z,7.47
2023-04-18T21:06:41.746Z,7.10
2023-04-18T21:09:08.663Z,6.97
2023-04-18T21:11:35.229Z,7.00
2023-04-18T21:14:03.702Z,7.20
2023-04-18T21:16:30.247Z,7.15
2023-04-18T21:18:56.855Z,7.10
2023-04-18T21:21:24.248Z,6.80
2023-04-18T21:23:50.808Z,7.22
2023-04-18T21:26:17.234Z,6.97
2023-04-18T21:28:57.707Z,6.45
2023-04-18T21:31:29.047Z,6.90
2023-04-18T21:33:56.991Z,6.57
2023-04-18T21:36:24.574Z,6.22
2023-04-18T21:38:55.981Z,7.03
2023-04-18T21:41:23.473Z,6.15
2023-04-18T21:43:50.141Z,6.00
2023-04-18T21:46:17.175Z,6.18
2023-04-18T21:48:45.869Z,5.80
2023-04-18T21:51:14.303Z,6.22
2023-04-18T21:53:41.779Z,5.75
2023-04-18T21:56:08.742Z,5.13
2023-04-18T21:58:35.303Z,5.45
2023-04-18T22:01:01.834Z,5.55
2023-04-18T22:03:28.864Z,5.88
2023-04-18T22:05:56.549Z,5.18
2023-04-18T22:08:25.672Z,5.50
2023-04-18T22:10:57.574Z,5.55
2023-04-18T22:13:33.097Z,5.30
2023-04-18T22:16:03.287Z,5.57
2023-04-18T22:18:31.381Z,5.43
2023-04-18T22:20:57.817Z,5.33
2023-04-18T22:23:24.617Z,5.30
2023-04-18T22:25:51.041Z,6.30
2023-04-18T22:28:17.428Z,6.18
2023-04-18T22:30:43.875Z,5.97
2023-04-18T22:33:10.493Z,6.43
2023-04-18T22:35:36.900Z,5.75
2023-04-18T22:38:03.339Z,6.40
2023-04-18T22:40:30.009Z,6.63
2023-04-18T22:42:56.408Z,5.95
2023-04-18T22:45:22.848Z,6.43
2023-04-18T22:47:49.414Z,6.72
2023-04-18T22:50:15.996Z,7.03
2023-04-18T22:52:42.482Z,6.63
2023-04-18T22:55:09.392Z,7.80
2023-04-18T22:57:36.102Z,7.20
2023-04-18T23:00:04.708Z,6.53
2023-04-18T23:02:31.341Z,7.10
2023-04-18T23:04:59.581Z,6.72
2023-04-18T23:07:26.046Z,7.43
2023-04-18T23:09:52.508Z,7.20
2023-04-18T23:12:18.970Z,7.63
2023-04-18T23:14:45.562Z,7.18
2023-04-18T23:17:11.983Z,7.53
2023-04-18T23:19:38.659Z,7.40
2023-04-18T23:22:05.085Z,7.87
2023-04-18T23:24:31.884Z,7.60
2023-04-18T23:26:58.275Z,7.90
2023-04-18T23:29:24.901Z,7.60
2023-04-18T23:31:51.647Z,8.05
2023-04-18T23:34:18.119Z,8.27
2023-04-18T23:36:44.862Z,7.75
2023-04-18T23:39:11.485Z,8.15
2023-04-18T23:41:37.895Z,8.93
2023-04-18T23:44:04.437Z,8.20
2023-04-18T23:46:31.108Z,9.03
2023-04-18T23:48:57.623Z,8.70
2023-04-18T23:51:24.037Z,9.02
2023-04-18T23:53:50.833Z,8.90
2023-04-18T23:56:17.259Z,9.02
2023-04-18T23:58:43.668Z,8.80
